Omak, Washington
Current Conditions -  °F | °C
As of 7:53 AM on Thursday 30 Oct 2014 (Local Time) from KOMK Reporting Station
Overcast Overcast  
Wind Chill: 46°   Ceiling: 7000
Heat Index: 46°   Visibility: 10mi
Dew Point: 44°   Wind: 0mph
Humidity: 93%   Direction: NA
Pressure: 30.11"   Gusts: NA
Location:  48.41°N, 119.53°W
Report Text: KOMK 301453Z AUTO 00000KT 10SM FEW050 OVC070 08/07 A3011 RMK AO2 SLP201 T00780067 56009
Loading
Personal Weather Stations






























Interactive Weather Map
Tropical Storm Tracking
New forecast layout! Learn more

10-Day Weather Forecast

Advertisements
Track Severe Weather on mobile